Daily Tabular Data
[Select Refresh to Update]


12/12/17
Time         Wind Dir   Wind Spd  Wind Gust     Hum In   Humidity    Temp In       Temp  Raw Barom   Tot Rain Wind Chill Heat Ix In Heat Index  Dew Point  DailyRain   HourRain   RainRate
                            mph        mph          %          %         F         F         in         in         F         F         F         F         in         in      in/hr
12:00am            94          4          7         23         17       73.0       67.7      29.33       0.10       67.7       71.8       66.1       21.4       0.00       0.00      0.000
12:30am            86          1          9         23         11       73.0       65.7      29.33       0.10       65.7       71.8       63.9        9.8       0.00       0.00      0.000
1:00am            110          0          4         23         12       72.9       63.3      29.33       0.10       63.3       71.7       61.5        9.9       0.00       0.00      0.000
1:30am            104          2          8         23         12       72.7       64.8      29.33       0.10       64.8       71.5       63.0       11.0       0.00       0.00      0.000
2:00am            103          0          4         23         14       72.6       61.3      29.33       0.10       61.3       71.4       59.6       11.7       0.00       0.00      0.000
2:30am             98          1          3         23         16       72.4       61.4      29.33       0.10       61.4       71.2       59.8       14.8       0.00       0.00      0.000
3:00am            111          0          2         23         23       72.3       61.1      29.33       0.10       61.1       71.1       59.9       23.0       0.00       0.00      0.000
3:30am            111          1          2         23         19       72.2       60.6      29.32       0.10       60.6       71.0       59.1       18.1       0.00       0.00      0.000
4:00am             98          0          3         23         17       72.1       59.5      29.32       0.10       59.5       70.9       57.9       14.7       0.00       0.00      0.000
4:30am             84          0          3         23         12       71.9       61.2      29.32       0.10       61.2       70.7       59.4        8.2       0.00       0.00      0.000
5:00am             95          0          6         22         15       71.8       58.2      29.32       0.10       58.2       70.5       56.5       10.8       0.00       0.00      0.000
5:30am             84          0          7         22         16       71.7       60.5      29.31       0.10       60.5       70.4       58.9       14.1       0.00       0.00      0.000
6:00am            141          0          1         23         26       71.6       61.8      29.31       0.10       61.8       70.4       60.7       26.6       0.00       0.00      0.000
6:30am             93          4          4         22         14       71.5       57.9      29.32       0.10       57.9       70.2       56.2        9.0       0.00       0.00      0.000
7:00am             75          0          6         22         13       71.4       61.4      29.33       0.10       61.4       70.1       59.6       10.1       0.00       0.00      0.000
7:30am            103          0          3         22         16       71.3       61.4      29.33       0.10       61.4       70.0       59.8       14.8       0.00       0.00      0.000
8:00am             88          0          1         22         18       71.2       64.9      29.33       0.10       64.9       69.9       63.4       20.4       0.00       0.00      0.000
8:30am            102          0          1         23         17       71.3       68.7      29.33       0.10       68.7       70.1       67.1       22.2       0.00       0.00      0.000
9:00am             82          0          1         22         16       71.5       73.1      29.34       0.10       73.1       70.2       71.5       24.3       0.00       0.00      0.000
9:30am            355          0          0         21         12       71.7       73.7      29.34       0.10       73.7       70.3       71.9       18.0       0.00       0.00      0.000
10:00am           139          0          3         22          8       72.0       78.5      29.33       0.10       78.5       70.7       76.5       12.4       0.00       0.00      0.000
10:30am           209          0          6         22         12       72.1       77.8      29.32       0.10       77.8       70.8       76.0       21.2       0.00       0.00      0.000
11:00am           260          0          5         21         10       72.1       78.0      29.30       0.10       78.0       70.7       76.1       17.1       0.00       0.00      0.000
11:30am           258          0          1         21         17       72.2       78.9      29.29       0.10       78.9       70.8       77.3       30.4       0.00       0.00      0.000
12:00pm           251          0          7         22         11       72.3       78.0      29.26       0.10       78.0       71.0       76.2       19.3       0.00       0.00      0.000
12:30pm           263          0          8         22         12       72.4       78.1      29.25       0.10       78.1       71.1       76.3       21.4       0.00       0.00      0.000
1:00pm            266          3         11         23          8       72.6       77.5      29.23       0.10       77.5       71.4       75.5       11.6       0.00       0.00      0.000
1:30pm            262          0         11         23          8       72.7       78.3      29.21       0.10       78.3       71.5       76.3       12.2       0.00       0.00      0.000
2:00pm            259          3          8         24         12       72.8       79.1      29.20       0.10       79.1       71.6       77.3       22.2       0.00       0.00      0.000
2:30pm            265          4         11         24         11       73.0       79.0      29.20       0.10       79.0       71.8       77.2       20.1       0.00       0.00      0.000
3:00pm            274          4         11         24          9       73.1       79.2      29.19       0.10       79.2       71.9       77.3       15.6       0.00       0.00      0.000
3:30pm            279          2         12         24          9       73.2       78.9      29.19       0.10       78.9       72.0       77.0       15.3       0.00       0.00      0.000
4:00pm            272          3          9         24         13       73.3       77.5      29.19       0.10       77.5       72.1       75.7       22.8       0.00       0.00      0.000
4:30pm            262          2          7         24         14       73.4       75.3      29.19       0.10       75.3       72.2       73.6       22.9       0.00       0.00      0.000
5:00pm            234          0          4         25         22       73.5       73.6      29.19       0.10       73.6       72.4       72.3       32.4       0.00       0.00      0.000
5:30pm            290          0          3         25         14       73.5       71.6      29.19       0.10       71.6       72.4       69.9       19.9       0.00       0.00      0.000
6:00pm            331          0          4         25         13       73.5       70.3      29.19       0.10       70.3       72.4       68.5       17.2       0.00       0.00      0.000
6:30pm            279          0          6         25          9       73.6       69.3      29.19       0.10       69.3       72.5       67.4        8.1       0.00       0.00      0.000
7:00pm            216          0          3         25         22       73.6       68.0      29.19       0.10       68.0       72.5       66.7       27.8       0.00       0.00      0.000
7:30pm            197          0          6         25         17       73.5       66.4      29.19       0.10       66.4       72.4       64.8       20.3       0.00       0.00      0.000
8:00pm             97          0          3         24         19       73.5       62.6      29.19       0.10       62.6       72.3       61.1       19.8       0.00       0.00      0.000
8:30pm             90          1          4         24         18       73.5       63.5      29.19       0.10       63.5       72.3       62.0       19.3       0.00       0.00      0.000
9:00pm             65          0          3         24         17       73.5       62.3      29.19       0.10       62.3       72.3       60.7       17.0       0.00       0.00      0.000
9:30pm             94          0          6         23         14       73.4       63.6      29.18       0.10       63.6       72.2       61.9       13.6       0.00       0.00      0.000
10:00pm            80          0          4         22         14       73.4       62.5      29.19       0.10       62.5       72.1       60.8       12.7       0.00       0.00      0.000
10:30pm           102          0          4         22         15       73.2       62.6      29.18       0.10       62.6       71.9       60.9       14.3       0.00       0.00      0.000
11:00pm           336          0          3         22         15       73.2       61.8      29.18       0.10       61.8       71.9       60.1       13.7       0.00       0.00      0.000
11:30pm            84          0          3         22         16       73.0       60.9      29.18       0.10       60.9       71.7       59.3       14.4       0.00       0.00      0.000